Strona główna
METAR-TAF:

METAR-TAF

Lotnisko :

Rapid City Regional Airport

Rapid City, Dakota Południowa, Stany Zjednoczone

Szerokość geograficzna: 44-02-44N, Długość geograficzna: 103-03-14W, wysokość: 976 m

Aktualna obserwacja pogody

Raport powstał 15 minut temu, godzina 20:52 UTC
Wiatr 8 kt od południowo-południowy wschód w porywach dochodzący do 21 kt
Temperatura 18°C
Wilgotność 19%
Ciśnienie 1004 hPa
Widzialność: 16.1 km
bezchmurnie

METAR: KRAP 102052Z 15008G21KT 10SM CLR 18/M06 A2966 RMK AO2 SLP052 T01781056 58034 $

czas: 15:07 (21:07 UTC)

Prognoza

Raport powstał 3 godziny i 28 minut temu, godzina 17:39 UTC
Prognoza ważna od 10 godzina 18 UTC do 11 godzina 18 UTC
Wiatr 10 kt od południowo-południowy wschód
Widzialność: 10 km
bezchmurnie
Od 11 godzina 0600 UTC
Wiatr 35 kt od północno-północny zachód w porywach dochodzący do 50 kt
Widzialność: 10 km
Rozproszone chmury na wysokości 10000 ft

TAF: KRAP 101739Z 1018/1118 16010KT P6SM SKC FM110600 33035G50KT P6SM SCT100

Obserwacja i prognoza pogody dla ponad 4000 lotnisk (raport METAR i TAF).

Dostępne stacje oznaczono żółtymi i czerwonymi punktami na mapie.

Najedź kursorem aby zobaczyć nazwę stacji.

Kliknij aby zobaczyć obserwacje i prognozy pogody.

Aby zmienić mapę: kliknij na zielony przycisk z czarnym krzyżykiem, aby powiększyć; na zielony przycisk z myślnikiem, aby pomniejszyć; na zielone strzałki, aby przejść do map sąsiednich.


METAR-TAF: